sensor_id;sensor_type;location;lat;lon;timestamp;temperature;humidity
20442;DHT22;10380;52.102;20.614;2023-06-05T00:01:20;13.00;99.90
20442;DHT22;10380;52.102;20.614;2023-06-05T00:03:47;12.90;99.90
20442;DHT22;10380;52.102;20.614;2023-06-05T00:06:16;12.90;99.90
20442;DHT22;10380;52.102;20.614;2023-06-05T00:08:43;12.80;99.90
20442;DHT22;10380;52.102;20.614;2023-06-05T00:11:10;12.80;99.90
20442;DHT22;10380;52.102;20.614;2023-06-05T00:13:37;12.80;99.90
20442;DHT22;10380;52.102;20.614;2023-06-05T00:16:04;12.70;99.90
20442;DHT22;10380;52.102;20.614;2023-06-05T00:18:31;12.70;99.90
20442;DHT22;10380;52.102;20.614;2023-06-05T00:20:58;12.70;99.90
20442;DHT22;10380;52.102;20.614;2023-06-05T00:23:26;12.70;99.90
20442;DHT22;10380;52.102;20.614;2023-06-05T00:25:54;12.70;99.90
20442;DHT22;10380;52.102;20.614;2023-06-05T00:28:21;12.70;99.90
20442;DHT22;10380;52.102;20.614;2023-06-05T00:30:48;12.60;99.90
20442;DHT22;10380;52.102;20.614;2023-06-05T00:33:15;12.50;99.90
20442;DHT22;10380;52.102;20.614;2023-06-05T00:35:43;12.40;99.90
20442;DHT22;10380;52.102;20.614;2023-06-05T00:38:10;12.40;99.90
20442;DHT22;10380;52.102;20.614;2023-06-05T00:40:37;12.20;99.90
20442;DHT22;10380;52.102;20.614;2023-06-05T00:43:04;12.20;99.90
20442;DHT22;10380;52.102;20.614;2023-06-05T00:45:32;12.10;99.90
20442;DHT22;10380;52.102;20.614;2023-06-05T00:47:59;12.10;99.90
20442;DHT22;10380;52.102;20.614;2023-06-05T00:50:27;12.00;99.90
20442;DHT22;10380;52.102;20.614;2023-06-05T00:52:55;12.00;99.90
20442;DHT22;10380;52.102;20.614;2023-06-05T00:55:22;12.00;99.90
20442;DHT22;10380;52.102;20.614;2023-06-05T00:57:49;12.00;99.90
20442;DHT22;10380;52.102;20.614;2023-06-05T01:00:16;12.00;99.90
20442;DHT22;10380;52.102;20.614;2023-06-05T01:02:43;12.00;99.90
20442;DHT22;10380;52.102;20.614;2023-06-05T01:05:10;11.90;99.90
20442;DHT22;10380;52.102;20.614;2023-06-05T01:07:38;11.90;99.90
20442;DHT22;10380;52.102;20.614;2023-06-05T01:10:06;11.90;99.90
20442;DHT22;10380;52.102;20.614;2023-06-05T01:15:18;11.90;99.90
20442;DHT22;10380;52.102;20.614;2023-06-05T01:18:00;11.90;99.90
20442;DHT22;10380;52.102;20.614;2023-06-05T01:20:38;11.80;99.90
20442;DHT22;10380;52.102;20.614;2023-06-05T01:23:06;11.80;99.90
20442;DHT22;10380;52.102;20.614;2023-06-05T01:25:34;11.80;99.90
20442;DHT22;10380;52.102;20.614;2023-06-05T01:28:07;11.80;99.90
20442;DHT22;10380;52.102;20.614;2023-06-05T01:30:41;11.70;99.90
20442;DHT22;10380;52.102;20.614;2023-06-05T01:33:19;11.60;99.90
20442;DHT22;10380;52.102;20.614;2023-06-05T01:41:22;11.40;99.90
20442;DHT22;10380;52.102;20.614;2023-06-05T01:43:49;11.40;99.90
20442;DHT22;10380;52.102;20.614;2023-06-05T01:46:20;11.40;99.90
20442;DHT22;10380;52.102;20.614;2023-06-05T01:48:48;11.40;99.90
20442;DHT22;10380;52.102;20.614;2023-06-05T01:51:17;11.40;99.90
20442;DHT22;10380;52.102;20.614;2023-06-05T01:53:44;11.40;99.90
20442;DHT22;10380;52.102;20.614;2023-06-05T01:56:16;11.40;99.90
20442;DHT22;10380;52.102;20.614;2023-06-05T01:58:47;11.40;99.90
20442;DHT22;10380;52.102;20.614;2023-06-05T02:01:14;11.40;99.90
20442;DHT22;10380;52.102;20.614;2023-06-05T02:03:42;11.40;99.90
20442;DHT22;10380;52.102;20.614;2023-06-05T02:06:16;11.30;99.90
20442;DHT22;10380;52.102;20.614;2023-06-05T02:08:43;11.30;99.90
20442;DHT22;10380;52.102;20.614;2023-06-05T02:11:10;11.30;99.90
20442;DHT22;10380;52.102;20.614;2023-06-05T02:13:39;11.30;99.90
20442;DHT22;10380;52.102;20.614;2023-06-05T02:16:10;11.30;99.90
20442;DHT22;10380;52.102;20.614;2023-06-05T02:18:37;11.30;99.90
20442;DHT22;10380;52.102;20.614;2023-06-05T02:21:04;11.20;99.90
20442;DHT22;10380;52.102;20.614;2023-06-05T02:23:32;11.20;99.90
20442;DHT22;10380;52.102;20.614;2023-06-05T02:25:59;11.20;99.90
20442;DHT22;10380;52.102;20.614;2023-06-05T02:28:26;11.10;99.90
20442;DHT22;10380;52.102;20.614;2023-06-05T02:30:54;11.10;99.90
20442;DHT22;10380;52.102;20.614;2023-06-05T02:33:22;11.20;99.90
20442;DHT22;10380;52.102;20.614;2023-06-05T02:35:50;11.20;99.90
20442;DHT22;10380;52.102;20.614;2023-06-05T02:38:19;11.10;99.90
20442;DHT22;10380;52.102;20.614;2023-06-05T02:40:46;11.10;99.90
20442;DHT22;10380;52.102;20.614;2023-06-05T02:43:13;11.10;99.90
20442;DHT22;10380;52.102;20.614;2023-06-05T02:45:41;11.10;99.90
20442;DHT22;10380;52.102;20.614;2023-06-05T02:48:08;11.10;99.90
20442;DHT22;10380;52.102;20.614;2023-06-05T02:50:35;11.20;99.90
20442;DHT22;10380;52.102;20.614;2023-06-05T02:53:02;11.20;99.90
20442;DHT22;10380;52.102;20.614;2023-06-05T02:55:29;11.10;99.90
20442;DHT22;10380;52.102;20.614;2023-06-05T02:57:59;11.20;99.90
20442;DHT22;10380;52.102;20.614;2023-06-05T03:00:26;11.20;99.90
20442;DHT22;10380;52.102;20.614;2023-06-05T03:02:53;11.20;99.90
20442;DHT22;10380;52.102;20.614;2023-06-05T03:05:23;11.20;99.90
20442;DHT22;10380;52.102;20.614;2023-06-05T03:07:53;11.20;99.90
20442;DHT22;10380;52.102;20.614;2023-06-05T03:10:21;11.20;99.90
20442;DHT22;10380;52.102;20.614;2023-06-05T03:12:48;11.20;99.90
20442;DHT22;10380;52.102;20.614;2023-06-05T03:15:15;11.20;99.90
20442;DHT22;10380;52.102;20.614;2023-06-05T03:17:44;11.20;99.90
20442;DHT22;10380;52.102;20.614;2023-06-05T03:20:13;11.20;99.90
20442;DHT22;10380;52.102;20.614;2023-06-05T03:22:40;11.30;99.90
20442;DHT22;10380;52.102;20.614;2023-06-05T03:25:08;11.20;99.90
20442;DHT22;10380;52.102;20.614;2023-06-05T03:27:35;11.30;99.90
20442;DHT22;10380;52.102;20.614;2023-06-05T03:30:03;11.30;99.90
20442;DHT22;10380;52.102;20.614;2023-06-05T03:32:31;11.30;99.90
20442;DHT22;10380;52.102;20.614;2023-06-05T03:34:59;11.30;99.90
20442;DHT22;10380;52.102;20.614;2023-06-05T03:37:26;11.40;99.90
20442;DHT22;10380;52.102;20.614;2023-06-05T03:39:53;11.40;99.90
20442;DHT22;10380;52.102;20.614;2023-06-05T03:42:20;11.40;99.90
20442;DHT22;10380;52.102;20.614;2023-06-05T03:44:48;11.50;99.90
20442;DHT22;10380;52.102;20.614;2023-06-05T03:47:16;11.50;99.90
20442;DHT22;10380;52.102;20.614;2023-06-05T03:49:43;11.60;99.90
20442;DHT22;10380;52.102;20.614;2023-06-05T03:52:14;11.60;99.90
20442;DHT22;10380;52.102;20.614;2023-06-05T03:54:41;11.70;99.90
20442;DHT22;10380;52.102;20.614;2023-06-05T03:57:14;11.80;99.90
20442;DHT22;10380;52.102;20.614;2023-06-05T03:59:41;11.90;99.90
20442;DHT22;10380;52.102;20.614;2023-06-05T04:02:08;12.00;99.90
20442;DHT22;10380;52.102;20.614;2023-06-05T04:04:35;12.10;99.90
20442;DHT22;10380;52.102;20.614;2023-06-05T04:07:03;12.20;99.90
20442;DHT22;10380;52.102;20.614;2023-06-05T04:09:30;12.20;99.90
20442;DHT22;10380;52.102;20.614;2023-06-05T04:11:57;12.30;99.90
20442;DHT22;10380;52.102;20.614;2023-06-05T04:14:25;12.50;99.90
20442;DHT22;10380;52.102;20.614;2023-06-05T04:16:52;12.60;99.90
20442;DHT22;10380;52.102;20.614;2023-06-05T04:19:19;12.60;99.90
20442;DHT22;10380;52.102;20.614;2023-06-05T04:21:48;12.70;99.90
20442;DHT22;10380;52.102;20.614;2023-06-05T04:24:15;12.80;99.90
20442;DHT22;10380;52.102;20.614;2023-06-05T04:26:43;12.90;99.90
20442;DHT22;10380;52.102;20.614;2023-06-05T04:29:10;13.00;99.90
20442;DHT22;10380;52.102;20.614;2023-06-05T04:31:44;13.10;99.90
20442;DHT22;10380;52.102;20.614;2023-06-05T04:34:12;13.20;99.90
20442;DHT22;10380;52.102;20.614;2023-06-05T04:36:42;13.30;99.90
20442;DHT22;10380;52.102;20.614;2023-06-05T04:39:10;13.40;99.90
20442;DHT22;10380;52.102;20.614;2023-06-05T04:41:44;13.50;99.90
20442;DHT22;10380;52.102;20.614;2023-06-05T04:44:16;13.60;99.90
20442;DHT22;10380;52.102;20.614;2023-06-05T04:46:44;13.70;99.90
20442;DHT22;10380;52.102;20.614;2023-06-05T04:49:13;13.80;99.90
20442;DHT22;10380;52.102;20.614;2023-06-05T04:51:41;13.90;99.90
20442;DHT22;10380;52.102;20.614;2023-06-05T04:54:10;14.00;99.90
20442;DHT22;10380;52.102;20.614;2023-06-05T04:56:38;14.10;99.90
20442;DHT22;10380;52.102;20.614;2023-06-05T04:59:06;14.20;99.90
20442;DHT22;10380;52.102;20.614;2023-06-05T05:01:33;14.30;99.90
20442;DHT22;10380;52.102;20.614;2023-06-05T05:04:01;14.40;99.90
20442;DHT22;10380;52.102;20.614;2023-06-05T05:06:28;14.50;99.90
20442;DHT22;10380;52.102;20.614;2023-06-05T05:08:55;14.60;99.90
20442;DHT22;10380;52.102;20.614;2023-06-05T05:11:23;14.60;99.90
20442;DHT22;10380;52.102;20.614;2023-06-05T05:13:50;14.70;99.90
20442;DHT22;10380;52.102;20.614;2023-06-05T05:16:17;14.80;99.90
20442;DHT22;10380;52.102;20.614;2023-06-05T05:18:44;15.00;99.90
20442;DHT22;10380;52.102;20.614;2023-06-05T05:21:13;15.10;99.90
20442;DHT22;10380;52.102;20.614;2023-06-05T05:23:41;15.20;99.90
20442;DHT22;10380;52.102;20.614;2023-06-05T05:26:09;15.30;99.90
20442;DHT22;10380;52.102;20.614;2023-06-05T05:28:37;15.50;99.90
20442;DHT22;10380;52.102;20.614;2023-06-05T05:31:05;15.60;99.90
20442;DHT22;10380;52.102;20.614;2023-06-05T05:33:33;15.70;99.90
20442;DHT22;10380;52.102;20.614;2023-06-05T05:35:59;15.70;99.90
20442;DHT22;10380;52.102;20.614;2023-06-05T05:38:26;15.80;99.90
20442;DHT22;10380;52.102;20.614;2023-06-05T05:40:54;15.90;99.90
20442;DHT22;10380;52.102;20.614;2023-06-05T05:43:21;16.00;99.90
20442;DHT22;10380;52.102;20.614;2023-06-05T05:45:48;16.10;99.90
20442;DHT22;10380;52.102;20.614;2023-06-05T05:48:15;16.20;99.90
20442;DHT22;10380;52.102;20.614;2023-06-05T05:50:42;16.20;99.90
20442;DHT22;10380;52.102;20.614;2023-06-05T05:53:09;16.30;99.90
20442;DHT22;10380;52.102;20.614;2023-06-05T05:55:36;16.40;99.90
20442;DHT22;10380;52.102;20.614;2023-06-05T05:58:03;16.40;99.90
20442;DHT22;10380;52.102;20.614;2023-06-05T06:00:30;16.50;99.90
20442;DHT22;10380;52.102;20.614;2023-06-05T06:02:57;16.60;99.90
20442;DHT22;10380;52.102;20.614;2023-06-05T06:05:24;16.60;99.90
20442;DHT22;10380;52.102;20.614;2023-06-05T06:07:51;16.70;99.90
20442;DHT22;10380;52.102;20.614;2023-06-05T06:10:18;16.80;99.90
20442;DHT22;10380;52.102;20.614;2023-06-05T06:12:46;17.00;99.90
20442;DHT22;10380;52.102;20.614;2023-06-05T06:15:13;17.10;99.90
20442;DHT22;10380;52.102;20.614;2023-06-05T06:17:40;17.20;99.90
20442;DHT22;10380;52.102;20.614;2023-06-05T06:20:08;17.30;99.90
20442;DHT22;10380;52.102;20.614;2023-06-05T06:22:40;17.40;99.90
20442;DHT22;10380;52.102;20.614;2023-06-05T06:25:09;17.50;99.90
20442;DHT22;10380;52.102;20.614;2023-06-05T06:27:37;17.50;99.90
20442;DHT22;10380;52.102;20.614;2023-06-05T06:30:05;17.60;99.90
20442;DHT22;10380;52.102;20.614;2023-06-05T06:32:32;17.70;99.90
20442;DHT22;10380;52.102;20.614;2023-06-05T06:34:59;17.80;99.90
20442;DHT22;10380;52.102;20.614;2023-06-05T06:37:26;17.90;99.90
20442;DHT22;10380;52.102;20.614;2023-06-05T06:39:54;17.90;99.90
20442;DHT22;10380;52.102;20.614;2023-06-05T06:42:22;18.10;99.90
20442;DHT22;10380;52.102;20.614;2023-06-05T06:44:49;18.10;99.90
20442;DHT22;10380;52.102;20.614;2023-06-05T06:47:22;18.20;99.90
20442;DHT22;10380;52.102;20.614;2023-06-05T06:49:51;18.30;99.90
20442;DHT22;10380;52.102;20.614;2023-06-05T06:52:18;18.40;99.90
20442;DHT22;10380;52.102;20.614;2023-06-05T06:54:50;18.40;99.90
20442;DHT22;10380;52.102;20.614;2023-06-05T06:57:17;18.50;99.90
20442;DHT22;10380;52.102;20.614;2023-06-05T06:59:44;18.60;99.90
20442;DHT22;10380;52.102;20.614;2023-06-05T07:02:17;18.60;99.90
20442;DHT22;10380;52.102;20.614;2023-06-05T07:04:44;18.70;99.90
20442;DHT22;10380;52.102;20.614;2023-06-05T07:07:15;18.90;99.90
20442;DHT22;10380;52.102;20.614;2023-06-05T07:09:45;18.90;99.90
20442;DHT22;10380;52.102;20.614;2023-06-05T07:12:13;19.00;99.90
20442;DHT22;10380;52.102;20.614;2023-06-05T07:14:41;19.10;99.90
20442;DHT22;10380;52.102;20.614;2023-06-05T07:17:08;19.10;99.90
20442;DHT22;10380;52.102;20.614;2023-06-05T07:19:35;19.20;99.90
20442;DHT22;10380;52.102;20.614;2023-06-05T07:22:05;19.30;99.90
20442;DHT22;10380;52.102;20.614;2023-06-05T07:24:34;19.20;99.90
20442;DHT22;10380;52.102;20.614;2023-06-05T07:27:06;19.30;99.10
20442;DHT22;10380;52.102;20.614;2023-06-05T07:29:34;19.40;99.40
20442;DHT22;10380;52.102;20.614;2023-06-05T07:32:02;19.40;99.00
20442;DHT22;10380;52.102;20.614;2023-06-05T07:34:33;19.50;98.80
20442;DHT22;10380;52.102;20.614;2023-06-05T07:37:01;19.60;98.80
20442;DHT22;10380;52.102;20.614;2023-06-05T07:39:28;19.60;98.50
20442;DHT22;10380;52.102;20.614;2023-06-05T07:41:56;19.70;98.60
20442;DHT22;10380;52.102;20.614;2023-06-05T07:44:23;19.80;98.50
20442;DHT22;10380;52.102;20.614;2023-06-05T07:46:51;19.80;98.40
20442;DHT22;10380;52.102;20.614;2023-06-05T07:49:18;19.90;98.40
20442;DHT22;10380;52.102;20.614;2023-06-05T07:51:46;19.90;98.30
20442;DHT22;10380;52.102;20.614;2023-06-05T07:54:15;20.00;97.80
20442;DHT22;10380;52.102;20.614;2023-06-05T07:56:43;20.00;97.30
20442;DHT22;10380;52.102;20.614;2023-06-05T07:59:10;20.00;97.40
20442;DHT22;10380;52.102;20.614;2023-06-05T08:01:42;20.10;97.00
20442;DHT22;10380;52.102;20.614;2023-06-05T08:04:09;20.10;96.40
20442;DHT22;10380;52.102;20.614;2023-06-05T08:06:39;20.10;95.70
20442;DHT22;10380;52.102;20.614;2023-06-05T08:09:07;20.10;95.60
20442;DHT22;10380;52.102;20.614;2023-06-05T08:11:37;20.20;95.70
20442;DHT22;10380;52.102;20.614;2023-06-05T08:14:07;20.20;95.30
20442;DHT22;10380;52.102;20.614;2023-06-05T08:16:35;20.20;94.90
20442;DHT22;10380;52.102;20.614;2023-06-05T08:19:02;20.30;94.40
20442;DHT22;10380;52.102;20.614;2023-06-05T08:21:30;20.30;93.50
20442;DHT22;10380;52.102;20.614;2023-06-05T08:23:57;20.30;93.50
20442;DHT22;10380;52.102;20.614;2023-06-05T08:26:24;20.30;93.70
20442;DHT22;10380;52.102;20.614;2023-06-05T08:28:52;20.30;93.30
20442;DHT22;10380;52.102;20.614;2023-06-05T08:31:20;20.40;92.10
20442;DHT22;10380;52.102;20.614;2023-06-05T08:33:47;20.50;91.80
20442;DHT22;10380;52.102;20.614;2023-06-05T08:36:14;20.50;91.20
20442;DHT22;10380;52.102;20.614;2023-06-05T08:38:43;20.60;90.50
20442;DHT22;10380;52.102;20.614;2023-06-05T08:41:13;20.60;90.70
20442;DHT22;10380;52.102;20.614;2023-06-05T08:43:43;20.60;90.50
20442;DHT22;10380;52.102;20.614;2023-06-05T08:46:14;20.60;90.90
20442;DHT22;10380;52.102;20.614;2023-06-05T08:48:45;20.60;91.30
20442;DHT22;10380;52.102;20.614;2023-06-05T08:51:16;20.70;91.00
20442;DHT22;10380;52.102;20.614;2023-06-05T08:54:02;20.60;90.60
20442;DHT22;10380;52.102;20.614;2023-06-05T08:56:36;20.70;90.50
20442;DHT22;10380;52.102;20.614;2023-06-05T08:59:04;20.70;90.30
20442;DHT22;10380;52.102;20.614;2023-06-05T09:01:32;20.80;90.30
20442;DHT22;10380;52.102;20.614;2023-06-05T09:03:59;20.80;90.00
20442;DHT22;10380;52.102;20.614;2023-06-05T09:06:26;20.80;90.30
20442;DHT22;10380;52.102;20.614;2023-06-05T09:08:54;20.90;90.00
20442;DHT22;10380;52.102;20.614;2023-06-05T09:11:27;20.90;90.10
20442;DHT22;10380;52.102;20.614;2023-06-05T09:13:56;20.90;90.30
20442;DHT22;10380;52.102;20.614;2023-06-05T09:16:39;20.90;90.20
20442;DHT22;10380;52.102;20.614;2023-06-05T09:19:11;20.90;90.40
20442;DHT22;10380;52.102;20.614;2023-06-05T09:21:39;20.90;90.40
20442;DHT22;10380;52.102;20.614;2023-06-05T09:24:17;21.00;90.50
20442;DHT22;10380;52.102;20.614;2023-06-05T09:29:42;21.00;90.10
20442;DHT22;10380;52.102;20.614;2023-06-05T09:32:17;21.10;89.70
20442;DHT22;10380;52.102;20.614;2023-06-05T09:34:57;21.10;89.80
20442;DHT22;10380;52.102;20.614;2023-06-05T09:37:36;21.10;89.10
20442;DHT22;10380;52.102;20.614;2023-06-05T09:40:04;21.10;89.50
20442;DHT22;10380;52.102;20.614;2023-06-05T09:42:33;21.10;89.80
20442;DHT22;10380;52.102;20.614;2023-06-05T09:45:01;21.10;89.30
20442;DHT22;10380;52.102;20.614;2023-06-05T09:47:28;21.20;90.00
20442;DHT22;10380;52.102;20.614;2023-06-05T09:50:20;21.20;89.10
20442;DHT22;10380;52.102;20.614;2023-06-05T09:52:48;21.20;88.80
20442;DHT22;10380;52.102;20.614;2023-06-05T09:55:16;21.30;89.30
20442;DHT22;10380;52.102;20.614;2023-06-05T09:57:43;21.30;89.90
20442;DHT22;10380;52.102;20.614;2023-06-05T10:00:12;21.30;89.10
20442;DHT22;10380;52.102;20.614;2023-06-05T10:02:41;21.40;88.70
20442;DHT22;10380;52.102;20.614;2023-06-05T10:05:11;21.40;88.60
20442;DHT22;10380;52.102;20.614;2023-06-05T10:07:39;21.50;88.20
20442;DHT22;10380;52.102;20.614;2023-06-05T10:10:09;21.50;87.10
20442;DHT22;10380;52.102;20.614;2023-06-05T10:12:36;21.50;86.60
20442;DHT22;10380;52.102;20.614;2023-06-05T10:15:06;21.50;86.00
20442;DHT22;10380;52.102;20.614;2023-06-05T10:17:34;21.50;86.20
20442;DHT22;10380;52.102;20.614;2023-06-05T10:20:05;21.50;86.20
20442;DHT22;10380;52.102;20.614;2023-06-05T10:22:35;21.50;86.30
20442;DHT22;10380;52.102;20.614;2023-06-05T10:25:05;21.50;86.70
20442;DHT22;10380;52.102;20.614;2023-06-05T10:33:07;21.60;86.40
20442;DHT22;10380;52.102;20.614;2023-06-05T10:38:43;21.70;86.80
20442;DHT22;10380;52.102;20.614;2023-06-05T10:41:11;21.80;87.40
20442;DHT22;10380;52.102;20.614;2023-06-05T10:43:48;21.80;86.90
20442;DHT22;10380;52.102;20.614;2023-06-05T10:46:36;21.80;86.90
20442;DHT22;10380;52.102;20.614;2023-06-05T10:49:18;21.90;88.00
20442;DHT22;10380;52.102;20.614;2023-06-05T10:51:48;21.90;86.90
20442;DHT22;10380;52.102;20.614;2023-06-05T10:59:20;22.10;86.60
20442;DHT22;10380;52.102;20.614;2023-06-05T11:07:19;22.20;84.30
20442;DHT22;10380;52.102;20.614;2023-06-05T11:10:16;22.30;83.30
20442;DHT22;10380;52.102;20.614;2023-06-05T11:12:55;22.40;82.50
20442;DHT22;10380;52.102;20.614;2023-06-05T11:17:48;22.50;83.90
20442;DHT22;10380;52.102;20.614;2023-06-05T11:27:52;22.90;82.50
20442;DHT22;10380;52.102;20.614;2023-06-05T11:30:22;23.00;82.30
20442;DHT22;10380;52.102;20.614;2023-06-05T11:33:09;23.10;81.70
20442;DHT22;10380;52.102;20.614;2023-06-05T11:35:42;23.20;80.60
20442;DHT22;10380;52.102;20.614;2023-06-05T11:38:16;23.30;80.10
20442;DHT22;10380;52.102;20.614;2023-06-05T11:40:48;23.40;80.90
20442;DHT22;10380;52.102;20.614;2023-06-05T11:43:15;23.50;80.30
20442;DHT22;10380;52.102;20.614;2023-06-05T11:45:49;23.70;79.80
20442;DHT22;10380;52.102;20.614;2023-06-05T11:48:17;23.90;80.10
20442;DHT22;10380;52.102;20.614;2023-06-05T11:50:58;24.10;80.30
20442;DHT22;10380;52.102;20.614;2023-06-05T11:53:31;24.40;79.20
20442;DHT22;10380;52.102;20.614;2023-06-05T11:55:58;24.70;77.80
20442;DHT22;10380;52.102;20.614;2023-06-05T11:58:33;25.00;77.40
20442;DHT22;10380;52.102;20.614;2023-06-05T12:01:13;25.30;76.10
20442;DHT22;10380;52.102;20.614;2023-06-05T12:03:45;25.70;74.80
20442;DHT22;10380;52.102;20.614;2023-06-05T12:06:13;26.10;74.30
20442;DHT22;10380;52.102;20.614;2023-06-05T12:08:41;26.40;72.80
20442;DHT22;10380;52.102;20.614;2023-06-05T12:11:26;26.70;71.70
20442;DHT22;10380;52.102;20.614;2023-06-05T12:13:56;27.00;69.80
20442;DHT22;10380;52.102;20.614;2023-06-05T12:16:34;27.30;68.50
20442;DHT22;10380;52.102;20.614;2023-06-05T12:19:21;27.40;68.70
20442;DHT22;10380;52.102;20.614;2023-06-05T12:21:49;27.40;67.20
20442;DHT22;10380;52.102;20.614;2023-06-05T12:24:26;27.60;67.40
20442;DHT22;10380;52.102;20.614;2023-06-05T12:27:03;27.70;66.30
20442;DHT22;10380;52.102;20.614;2023-06-05T12:29:34;27.80;65.80
20442;DHT22;10380;52.102;20.614;2023-06-05T12:32:02;28.10;65.50
20442;DHT22;10380;52.102;20.614;2023-06-05T12:34:44;28.30;65.00
20442;DHT22;10380;52.102;20.614;2023-06-05T12:37:22;28.60;63.50
20442;DHT22;10380;52.102;20.614;2023-06-05T12:39:50;28.70;62.40
20442;DHT22;10380;52.102;20.614;2023-06-05T12:42:16;28.80;61.80
20442;DHT22;10380;52.102;20.614;2023-06-05T12:44:43;28.80;61.30
20442;DHT22;10380;52.102;20.614;2023-06-05T12:47:10;29.00;60.60
20442;DHT22;10380;52.102;20.614;2023-06-05T12:49:37;29.10;61.10
20442;DHT22;10380;52.102;20.614;2023-06-05T12:52:08;29.30;60.80
20442;DHT22;10380;52.102;20.614;2023-06-05T12:54:37;29.40;60.40
20442;DHT22;10380;52.102;20.614;2023-06-05T12:57:05;29.50;60.20
20442;DHT22;10380;52.102;20.614;2023-06-05T12:59:38;29.60;60.90
20442;DHT22;10380;52.102;20.614;2023-06-05T13:02:05;29.60;61.10
20442;DHT22;10380;52.102;20.614;2023-06-05T13:04:32;29.70;60.60
20442;DHT22;10380;52.102;20.614;2023-06-05T13:07:02;29.80;60.20
20442;DHT22;10380;52.102;20.614;2023-06-05T13:09:30;29.80;59.70
20442;DHT22;10380;52.102;20.614;2023-06-05T13:11:57;29.90;59.80
20442;DHT22;10380;52.102;20.614;2023-06-05T13:14:26;29.90;59.20
20442;DHT22;10380;52.102;20.614;2023-06-05T13:16:53;30.00;59.30
20442;DHT22;10380;52.102;20.614;2023-06-05T13:19:20;30.10;58.30
20442;DHT22;10380;52.102;20.614;2023-06-05T13:21:48;30.20;57.90
20442;DHT22;10380;52.102;20.614;2023-06-05T13:24:15;30.30;57.40
20442;DHT22;10380;52.102;20.614;2023-06-05T13:26:43;30.30;57.60
20442;DHT22;10380;52.102;20.614;2023-06-05T13:29:10;30.30;57.00
20442;DHT22;10380;52.102;20.614;2023-06-05T13:31:37;30.20;56.90
20442;DHT22;10380;52.102;20.614;2023-06-05T13:34:04;30.30;56.90
20442;DHT22;10380;52.102;20.614;2023-06-05T13:36:32;30.30;56.90
20442;DHT22;10380;52.102;20.614;2023-06-05T13:39:00;30.30;56.40
20442;DHT22;10380;52.102;20.614;2023-06-05T13:41:27;30.40;56.50
20442;DHT22;10380;52.102;20.614;2023-06-05T13:43:54;30.50;56.30
20442;DHT22;10380;52.102;20.614;2023-06-05T13:46:24;30.60;55.90
20442;DHT22;10380;52.102;20.614;2023-06-05T13:48:53;30.60;56.00
20442;DHT22;10380;52.102;20.614;2023-06-05T13:51:21;30.60;55.60
20442;DHT22;10380;52.102;20.614;2023-06-05T13:53:48;30.60;55.40
20442;DHT22;10380;52.102;20.614;2023-06-05T13:56:15;30.70;55.50
20442;DHT22;10380;52.102;20.614;2023-06-05T13:58:42;30.70;55.50
20442;DHT22;10380;52.102;20.614;2023-06-05T14:01:09;30.70;55.20
20442;DHT22;10380;52.102;20.614;2023-06-05T14:03:36;30.70;54.60
20442;DHT22;10380;52.102;20.614;2023-06-05T14:06:04;30.60;54.30
20442;DHT22;10380;52.102;20.614;2023-06-05T14:08:31;30.60;54.20
20442;DHT22;10380;52.102;20.614;2023-06-05T14:11:00;30.70;54.50
20442;DHT22;10380;52.102;20.614;2023-06-05T14:13:27;30.50;54.30
20442;DHT22;10380;52.102;20.614;2023-06-05T14:15:54;30.40;54.40
20442;DHT22;10380;52.102;20.614;2023-06-05T14:18:21;30.20;54.10
20442;DHT22;10380;52.102;20.614;2023-06-05T14:20:48;30.10;54.00
20442;DHT22;10380;52.102;20.614;2023-06-05T14:23:15;30.10;53.80
20442;DHT22;10380;52.102;20.614;2023-06-05T14:25:41;30.00;53.70
20442;DHT22;10380;52.102;20.614;2023-06-05T14:28:08;29.80;53.40
20442;DHT22;10380;52.102;20.614;2023-06-05T14:30:37;29.80;54.10
20442;DHT22;10380;52.102;20.614;2023-06-05T14:33:05;29.70;53.90
20442;DHT22;10380;52.102;20.614;2023-06-05T14:35:32;29.70;53.70
20442;DHT22;10380;52.102;20.614;2023-06-05T14:37:59;29.80;54.20
20442;DHT22;10380;52.102;20.614;2023-06-05T14:40:26;29.80;54.70
20442;DHT22;10380;52.102;20.614;2023-06-05T14:42:53;29.90;55.10
20442;DHT22;10380;52.102;20.614;2023-06-05T14:45:20;30.00;54.90
20442;DHT22;10380;52.102;20.614;2023-06-05T14:47:47;30.10;54.70
20442;DHT22;10380;52.102;20.614;2023-06-05T14:50:14;30.20;54.10
20442;DHT22;10380;52.102;20.614;2023-06-05T14:52:41;30.20;53.60
20442;DHT22;10380;52.102;20.614;2023-06-05T14:55:08;30.20;53.80
20442;DHT22;10380;52.102;20.614;2023-06-05T14:57:36;30.30;53.90
20442;DHT22;10380;52.102;20.614;2023-06-05T15:00:04;30.30;53.80
20442;DHT22;10380;52.102;20.614;2023-06-05T15:02:32;30.30;53.70
20442;DHT22;10380;52.102;20.614;2023-06-05T15:05:00;30.30;53.90
20442;DHT22;10380;52.102;20.614;2023-06-05T15:07:38;30.30;53.80
20442;DHT22;10380;52.102;20.614;2023-06-05T15:10:06;30.40;54.00
20442;DHT22;10380;52.102;20.614;2023-06-05T15:12:35;30.40;53.90
20442;DHT22;10380;52.102;20.614;2023-06-05T15:15:02;30.40;53.10
20442;DHT22;10380;52.102;20.614;2023-06-05T15:17:46;30.30;53.70
20442;DHT22;10380;52.102;20.614;2023-06-05T15:20:14;30.30;53.10
20442;DHT22;10380;52.102;20.614;2023-06-05T15:22:41;30.30;53.00
20442;DHT22;10380;52.102;20.614;2023-06-05T15:25:09;30.30;52.50
20442;DHT22;10380;52.102;20.614;2023-06-05T15:27:36;30.30;52.50
20442;DHT22;10380;52.102;20.614;2023-06-05T15:30:06;30.30;52.40
20442;DHT22;10380;52.102;20.614;2023-06-05T15:32:33;30.30;52.60
20442;DHT22;10380;52.102;20.614;2023-06-05T15:35:00;30.30;52.50
20442;DHT22;10380;52.102;20.614;2023-06-05T15:37:28;30.20;51.90
20442;DHT22;10380;52.102;20.614;2023-06-05T15:39:54;30.10;52.20
20442;DHT22;10380;52.102;20.614;2023-06-05T15:42:32;30.10;52.30
20442;DHT22;10380;52.102;20.614;2023-06-05T15:45:13;30.00;52.70
20442;DHT22;10380;52.102;20.614;2023-06-05T15:47:42;30.00;52.40
20442;DHT22;10380;52.102;20.614;2023-06-05T15:50:09;30.00;52.30
20442;DHT22;10380;52.102;20.614;2023-06-05T15:52:38;29.90;52.20
20442;DHT22;10380;52.102;20.614;2023-06-05T15:55:05;29.80;52.20
20442;DHT22;10380;52.102;20.614;2023-06-05T15:57:32;29.60;52.00
20442;DHT22;10380;52.102;20.614;2023-06-05T16:00:00;29.50;52.50
20442;DHT22;10380;52.102;20.614;2023-06-05T16:02:27;29.40;52.60
20442;DHT22;10380;52.102;20.614;2023-06-05T16:04:54;29.30;52.60
20442;DHT22;10380;52.102;20.614;2023-06-05T16:07:21;29.30;52.50